Time;durP1;ratioP1;P1;durP2;ratioP2;P2;SDS_P1;SDS_P2;PMS_P1;PMS_P2;Temp;Humidity;BMP_temperature;BMP_pressure;BME280_temperature;BME280_humidity;BME280_pressure;Samples;Min_cycle;Max_cycle;Signal;HPM_P1;HPM_P2
2024/03/28 00:01:46;;;;;;;;;1.00;1.00;;;;;;;;5104098;27;45308;-84
2024/03/28 00:04:11;;;;;;;;;1.33;1.33;;;;;;;;5103966;27;45562;-84
2024/03/28 00:06:36;;;;;;;;;1.00;1.00;;;;;;;;5100956;27;45296;-82
2024/03/28 00:09:02;;;;;;;;;1.00;1.00;;;;;;;;5101978;27;45354;-83
2024/03/28 00:11:27;;;;;;;;;3.00;1.00;;;;;;;;5103379;27;45278;-83
2024/03/28 00:13:52;;;;;;;;;0.00;0.00;;;;;;;;5104722;27;45523;-83
2024/03/28 00:16:17;;;;;;;;;0.00;0.00;;;;;;;;5101148;27;45528;-83
2024/03/28 00:18:43;;;;;;;;;2.00;2.00;;;;;;;;5100055;27;45562;-84
2024/03/28 00:21:08;;;;;;;;;1.00;1.00;;;;;;;;5074518;27;45630;-83
2024/03/28 00:23:33;;;;;;;;;1.00;1.00;;;;;;;;5059150;28;45355;-84
2024/03/28 00:26:00;;;;;;;;;2.00;1.00;;;;;;;;5059921;28;45493;-84
2024/03/28 00:28:26;;;;;;;;;1.00;1.00;;;;;;;;5060823;28;45215;-84
2024/03/28 00:30:52;;;;;;;;;1.00;1.00;;;;;;;;5060364;28;45449;-84
2024/03/28 00:33:17;;;;;;;;;2.67;2.67;;;;;;;;5060279;28;45600;-84
2024/03/28 00:35:46;;;;;;;;;1.00;1.00;;;;;;;;5060088;28;46863;-84
2024/03/28 00:38:12;;;;;;;;;3.33;2.00;;;;;;;;5060423;28;45354;-85
2024/03/28 00:40:45;;;;;;;;;2.00;2.00;;;;;;;;5062022;28;45331;-83
2024/03/28 00:43:10;;;;;;;;;1.00;1.00;;;;;;;;5059549;28;45300;-85
2024/03/28 00:45:35;;;;;;;;;1.33;1.33;;;;;;;;5058981;28;45426;-83
2024/03/28 00:48:00;;;;;;;;;2.00;2.00;;;;;;;;5058902;28;45346;-82
2024/03/28 00:50:25;;;;;;;;;3.00;3.00;;;;;;;;5059017;28;45361;-81
2024/03/28 00:52:50;;;;;;;;;2.33;2.00;;;;;;;;5057295;28;45972;-82
2024/03/28 00:55:16;;;;;;;;;4.33;3.33;;;;;;;;5058907;28;45410;-83
2024/03/28 00:57:41;;;;;;;;;3.00;3.00;;;;;;;;5080190;27;45434;-82
2024/03/28 01:00:07;;;;;;;;;3.67;3.67;;;;;;;;5099837;27;45337;-84
2024/03/28 01:02:32;;;;;;;;;4.67;4.33;;;;;;;;5097931;27;46303;-84
2024/03/28 01:04:57;;;;;;;;;4.00;4.00;;;;;;;;5099024;27;45481;-83
2024/03/28 01:07:22;;;;;;;;;3.67;3.67;;;;;;;;5097989;27;45857;-82
2024/03/28 01:09:48;;;;;;;;;3.33;3.33;;;;;;;;5098251;27;45272;-84
2024/03/28 01:12:13;;;;;;;;;3.67;3.67;;;;;;;;5099381;27;45361;-84
2024/03/28 01:14:38;;;;;;;;;2.33;2.33;;;;;;;;5099133;27;45332;-84
2024/03/28 01:17:03;;;;;;;;;5.67;5.33;;;;;;;;5098238;27;45896;-83
2024/03/28 01:19:28;;;;;;;;;2.00;2.00;;;;;;;;5102888;27;45348;-85
2024/03/28 01:21:53;;;;;;;;;3.33;2.67;;;;;;;;5102633;27;45315;-83
2024/03/28 01:24:19;;;;;;;;;3.00;3.00;;;;;;;;5102745;27;45333;-85
2024/03/28 01:26:44;;;;;;;;;2.00;2.00;;;;;;;;5083203;27;45952;-85
2024/03/28 01:29:09;;;;;;;;;2.00;2.00;;;;;;;;5082304;28;45305;-84
2024/03/28 01:31:34;;;;;;;;;2.00;2.00;;;;;;;;5081691;28;45523;-83
2024/03/28 01:34:00;;;;;;;;;3.00;2.00;;;;;;;;5081742;28;45380;-84
2024/03/28 01:36:25;;;;;;;;;3.00;2.00;;;;;;;;5082260;28;45306;-83
2024/03/28 01:38:50;;;;;;;;;1.33;1.33;;;;;;;;5082321;28;45232;-84
2024/03/28 01:41:15;;;;;;;;;1.00;1.00;;;;;;;;5080597;28;46142;-84
2024/03/28 01:43:42;;;;;;;;;2.00;2.00;;;;;;;;5081698;28;45210;-83
2024/03/28 01:46:07;;;;;;;;;2.00;2.00;;;;;;;;5081932;28;45272;-84
2024/03/28 01:48:32;;;;;;;;;0.33;0.33;;;;;;;;5080263;28;45245;-85
2024/03/28 01:50:59;;;;;;;;;1.67;1.67;;;;;;;;5081913;28;45504;-81
2024/03/28 01:53:24;;;;;;;;;1.33;1.33;;;;;;;;5080343;28;48487;-83
2024/03/28 01:55:49;;;;;;;;;1.00;1.00;;;;;;;;5081517;28;45401;-81
2024/03/28 01:58:15;;;;;;;;;1.00;1.00;;;;;;;;5097294;27;45408;-81
2024/03/28 02:00:41;;;;;;;;;0.00;0.00;;;;;;;;5102357;27;45436;-82
2024/03/28 02:03:07;;;;;;;;;1.00;1.00;;;;;;;;5101887;27;46197;-82
2024/03/28 02:05:32;;;;;;;;;3.33;1.67;;;;;;;;5100444;27;45426;-84
2024/03/28 02:07:58;;;;;;;;;1.00;1.00;;;;;;;;5100873;27;45590;-82
2024/03/28 02:10:23;;;;;;;;;1.00;1.00;;;;;;;;5100459;27;46553;-83
2024/03/28 02:12:48;;;;;;;;;1.00;1.00;;;;;;;;5100467;27;48061;-83
2024/03/28 02:15:13;;;;;;;;;1.00;1.00;;;;;;;;5101821;27;45435;-84
2024/03/28 02:17:48;;;;;;;;;2.00;2.00;;;;;;;;5101788;27;45263;-83
2024/03/28 02:20:14;;;;;;;;;2.00;2.00;;;;;;;;5101677;27;45428;-86
2024/03/28 02:22:39;;;;;;;;;1.00;1.00;;;;;;;;5101562;27;46005;-83
2024/03/28 02:25:06;;;;;;;;;2.00;1.00;;;;;;;;5100396;27;45277;-84
2024/03/28 02:27:31;;;;;;;;;1.00;1.00;;;;;;;;5101871;27;45283;-85
2024/03/28 02:29:56;;;;;;;;;2.00;2.00;;;;;;;;5101683;27;45273;-84
2024/03/28 02:32:21;;;;;;;;;1.00;1.00;;;;;;;;5100157;27;47246;-84
2024/03/28 02:34:46;;;;;;;;;4.00;2.00;;;;;;;;5101380;27;45357;-83
2024/03/28 02:37:12;;;;;;;;;2.00;2.00;;;;;;;;5100481;27;45188;-84
2024/03/28 02:39:37;;;;;;;;;1.00;1.00;;;;;;;;5101422;27;45227;-82
2024/03/28 02:42:02;;;;;;;;;2.00;2.00;;;;;;;;5101442;27;46073;-84
2024/03/28 02:44:27;;;;;;;;;1.00;1.00;;;;;;;;5101265;27;45177;-81
2024/03/28 02:46:52;;;;;;;;;1.00;1.00;;;;;;;;5101375;27;45226;-81
2024/03/28 02:49:18;;;;;;;;;2.00;2.00;;;;;;;;5101258;27;45182;-82
2024/03/28 02:51:43;;;;;;;;;2.00;1.00;;;;;;;;5088838;27;46289;-81
2024/03/28 02:54:08;;;;;;;;;1.33;1.33;;;;;;;;5080478;28;45339;-82
2024/03/28 02:56:33;;;;;;;;;0.33;0.33;;;;;;;;5080770;28;45344;-82
2024/03/28 02:58:58;;;;;;;;;1.00;1.00;;;;;;;;5080978;28;45552;-81
2024/03/28 03:01:23;;;;;;;;;1.00;1.00;;;;;;;;5080673;28;46323;-81
2024/03/28 03:03:48;;;;;;;;;1.33;1.33;;;;;;;;5079281;28;45364;-81
2024/03/28 03:06:14;;;;;;;;;1.00;0.00;;;;;;;;5079687;28;45335;-80
2024/03/28 03:08:39;;;;;;;;;1.00;1.00;;;;;;;;5080603;28;45365;-81
2024/03/28 03:11:04;;;;;;;;;0.00;0.00;;;;;;;;5080508;28;46021;-81
2024/03/28 03:13:29;;;;;;;;;2.67;2.00;;;;;;;;5080544;28;45449;-82
2024/03/28 03:15:59;;;;;;;;;1.00;1.00;;;;;;;;5080732;28;45378;-82
2024/03/28 03:18:26;;;;;;;;;1.00;1.00;;;;;;;;5080264;28;45493;-82
2024/03/28 03:21:06;;;;;;;;;1.33;1.33;;;;;;;;5080256;28;45241;-82
2024/03/28 03:23:35;;;;;;;;;0.00;0.00;;;;;;;;5080458;28;45308;-82
2024/03/28 03:26:01;;;;;;;;;1.00;1.00;;;;;;;;5080368;28;45171;-82
2024/03/28 03:36:39;;;;;;;;;0.00;0.00;;;;;;;;5080183;28;45314;-84
2024/03/28 03:39:04;;;;;;;;;0.00;0.00;;;;;;;;5078857;28;45399;-85
2024/03/28 03:41:29;;;;;;;;;0.00;0.00;;;;;;;;5078140;28;48187;-84
2024/03/28 03:43:54;;;;;;;;;0.00;0.00;;;;;;;;5080202;28;45532;-84
2024/03/28 03:46:20;;;;;;;;;0.00;0.00;;;;;;;;5080159;28;45229;-87
2024/03/28 03:48:45;;;;;;;;;0.00;0.00;;;;;;;;5078714;28;46962;-85
2024/03/28 03:51:10;;;;;;;;;1.67;0.00;;;;;;;;5080099;28;45329;-84
2024/03/28 03:53:35;;;;;;;;;0.00;0.00;;;;;;;;5078405;28;46298;-83
2024/03/28 03:56:00;;;;;;;;;0.00;0.00;;;;;;;;5078931;28;45235;-82
2024/03/28 03:58:25;;;;;;;;;0.00;0.00;;;;;;;;5080226;28;45448;-84
2024/03/28 04:00:51;;;;;;;;;0.00;0.00;;;;;;;;5079941;28;46273;-82
2024/03/28 04:03:19;;;;;;;;;0.00;0.00;;;;;;;;5078550;28;45862;-85
2024/03/28 04:05:44;;;;;;;;;0.67;0.67;;;;;;;;5078827;28;45407;-86
2024/03/28 04:08:10;;;;;;;;;0.00;0.00;;;;;;;;5078355;28;46943;-83
2024/03/28 04:10:35;;;;;;;;;0.00;0.00;;;;;;;;5079445;28;45613;-85
2024/03/28 04:13:00;;;;;;;;;0.00;0.00;;;;;;;;5079848;28;45380;-83
2024/03/28 04:15:25;;;;;;;;;0.00;0.00;;;;;;;;5078908;28;45440;-83
2024/03/28 04:17:50;;;;;;;;;0.00;0.00;;;;;;;;5079839;28;45362;-83
2024/03/28 04:20:16;;;;;;;;;0.00;0.00;;;;;;;;5079683;28;45879;-82
2024/03/28 04:22:41;;;;;;;;;0.00;0.00;;;;;;;;5060125;28;45822;-85
2024/03/28 04:25:06;;;;;;;;;0.00;0.00;;;;;;;;5058253;28;45382;-86
2024/03/28 04:27:31;;;;;;;;;0.00;0.00;;;;;;;;5059350;28;45326;-86
2024/03/28 04:29:56;;;;;;;;;1.00;0.00;;;;;;;;5058090;28;48175;-83
2024/03/28 04:32:22;;;;;;;;;0.00;0.00;;;;;;;;5059324;28;45313;-85
2024/03/28 04:34:48;;;;;;;;;0.00;0.00;;;;;;;;5059283;28;45458;-84
2024/03/28 04:37:13;;;;;;;;;0.00;0.00;;;;;;;;5058017;28;47733;-85
2024/03/28 04:39:39;;;;;;;;;0.00;0.00;;;;;;;;5059768;28;45289;-83
2024/03/28 04:42:04;;;;;;;;;0.00;0.00;;;;;;;;5057640;28;45742;-87
2024/03/28 04:44:29;;;;;;;;;0.00;0.00;;;;;;;;5059561;28;45347;-85
2024/03/28 04:46:57;;;;;;;;;0.00;0.00;;;;;;;;5059239;28;45408;-81
2024/03/28 04:49:22;;;;;;;;;0.00;0.00;;;;;;;;5059066;28;46188;-81
2024/03/28 04:51:49;;;;;;;;;0.00;0.00;;;;;;;;5059302;28;45252;-83
2024/03/28 04:54:14;;;;;;;;;0.00;0.00;;;;;;;;5061184;28;45301;-81
2024/03/28 04:56:41;;;;;;;;;0.00;0.00;;;;;;;;5066621;27;45500;-85
2024/03/28 04:59:06;;;;;;;;;0.00;0.00;;;;;;;;5103225;27;45344;-81
2024/03/28 05:01:31;;;;;;;;;0.00;0.00;;;;;;;;5103127;27;45393;-83
2024/03/28 05:03:56;;;;;;;;;0.00;0.00;;;;;;;;5102381;27;45337;-80
2024/03/28 05:06:21;;;;;;;;;0.00;0.00;;;;;;;;5103131;27;45279;-80
2024/03/28 05:08:47;;;;;;;;;0.00;0.00;;;;;;;;5103214;27;46272;-82
2024/03/28 05:11:12;;;;;;;;;0.00;0.00;;;;;;;;5103164;27;45263;-82
2024/03/28 05:13:37;;;;;;;;;0.00;0.00;;;;;;;;5103166;27;45328;-81
2024/03/28 05:16:02;;;;;;;;;0.00;0.00;;;;;;;;5103027;27;45366;-82
2024/03/28 05:18:28;;;;;;;;;0.00;0.00;;;;;;;;5102728;27;47637;-81
2024/03/28 05:20:53;;;;;;;;;0.00;0.00;;;;;;;;5101641;27;45519;-84
2024/03/28 05:23:18;;;;;;;;;0.00;0.00;;;;;;;;5101745;27;45342;-80
2024/03/28 05:25:44;;;;;;;;;0.00;0.00;;;;;;;;5102825;27;45235;-81
2024/03/28 05:28:09;;;;;;;;;0.00;0.00;;;;;;;;5097553;27;46321;-81
2024/03/28 05:30:34;;;;;;;;;0.00;0.00;;;;;;;;5082286;28;45289;-81
2024/03/28 05:33:00;;;;;;;;;0.00;0.00;;;;;;;;5080515;28;45246;-80
2024/03/28 05:35:25;;;;;;;;;0.00;0.00;;;;;;;;5081581;28;45427;-81
2024/03/28 05:37:51;;;;;;;;;0.00;0.00;;;;;;;;5081349;28;46301;-81
2024/03/28 05:40:16;;;;;;;;;0.00;0.00;;;;;;;;5082246;28;45444;-80
2024/03/28 05:42:41;;;;;;;;;0.00;0.00;;;;;;;;5082125;28;45155;-81
2024/03/28 05:45:06;;;;;;;;;0.00;0.00;;;;;;;;5080570;28;46906;-81
2024/03/28 05:47:31;;;;;;;;;0.00;0.00;;;;;;;;5081895;28;46296;-82
2024/03/28 05:49:56;;;;;;;;;0.00;0.00;;;;;;;;5082045;28;45283;-82
2024/03/28 05:52:23;;;;;;;;;1.00;1.00;;;;;;;;5081995;28;45215;-82
2024/03/28 05:54:48;;;;;;;;;1.33;0.33;;;;;;;;5081910;28;45260;-82
2024/03/28 05:57:13;;;;;;;;;0.00;0.00;;;;;;;;5088643;27;45259;-83
2024/03/28 05:59:38;;;;;;;;;0.00;0.00;;;;;;;;5102530;27;45205;-81
2024/03/28 06:02:04;;;;;;;;;0.00;0.00;;;;;;;;5102143;27;45330;-81
2024/03/28 06:04:29;;;;;;;;;0.00;0.00;;;;;;;;5101671;27;45294;-80
2024/03/28 06:06:54;;;;;;;;;0.00;0.00;;;;;;;;5102207;27;45283;-81
2024/03/28 06:09:19;;;;;;;;;0.00;0.00;;;;;;;;5102286;27;45203;-81
2024/03/28 06:11:44;;;;;;;;;1.00;0.00;;;;;;;;5102423;27;45290;-81
2024/03/28 06:14:10;;;;;;;;;0.00;0.00;;;;;;;;5101988;27;45380;-81
2024/03/28 06:16:35;;;;;;;;;0.00;0.00;;;;;;;;5100541;27;47062;-81
2024/03/28 06:19:04;;;;;;;;;0.00;0.00;;;;;;;;5100504;27;45677;-81
2024/03/28 06:21:29;;;;;;;;;0.00;0.00;;;;;;;;5102426;27;45307;-79
2024/03/28 06:23:54;;;;;;;;;0.00;0.00;;;;;;;;5102861;27;45259;-79
2024/03/28 06:26:19;;;;;;;;;0.00;0.00;;;;;;;;5100781;27;47256;-79
2024/03/28 06:28:45;;;;;;;;;0.00;0.00;;;;;;;;5102192;27;45216;-79
2024/03/28 06:31:10;;;;;;;;;0.00;0.00;;;;;;;;5101888;27;45403;-79
2024/03/28 06:33:35;;;;;;;;;0.00;0.00;;;;;;;;5101242;27;45345;-80
2024/03/28 06:36:04;;;;;;;;;0.00;0.00;;;;;;;;5101714;27;45270;-81
2024/03/28 06:38:29;;;;;;;;;0.00;0.00;;;;;;;;5101616;27;45311;-81
2024/03/28 06:40:58;;;;;;;;;0.00;0.00;;;;;;;;5083150;27;45299;-80
2024/03/28 06:43:23;;;;;;;;;0.00;0.00;;;;;;;;5081246;28;45284;-80
2024/03/28 06:45:48;;;;;;;;;0.00;0.00;;;;;;;;5080969;28;46300;-80
2024/03/28 06:48:13;;;;;;;;;0.00;0.00;;;;;;;;5081111;28;45314;-79
2024/03/28 06:50:38;;;;;;;;;0.00;0.00;;;;;;;;5065769;28;45251;-80
2024/03/28 06:53:05;;;;;;;;;0.00;0.00;;;;;;;;5060632;28;45326;-81
2024/03/28 06:55:30;;;;;;;;;0.00;0.00;;;;;;;;5060923;28;45279;-83
2024/03/28 06:57:55;;;;;;;;;0.00;0.00;;;;;;;;5084596;27;45433;-82
2024/03/28 07:00:20;;;;;;;;;0.00;0.00;;;;;;;;5101051;27;45260;-82
2024/03/28 07:02:46;;;;;;;;;0.00;0.00;;;;;;;;5081550;28;45509;-78
2024/03/28 07:05:11;;;;;;;;;1.00;0.00;;;;;;;;5082098;28;45208;-79
2024/03/28 07:07:36;;;;;;;;;0.00;0.00;;;;;;;;5081186;28;45281;-80
2024/03/28 07:10:01;;;;;;;;;0.00;0.00;;;;;;;;5083882;28;45365;-78
2024/03/28 07:12:26;;;;;;;;;0.00;0.00;;;;;;;;5083115;28;46354;-78
2024/03/28 07:14:52;;;;;;;;;0.00;0.00;;;;;;;;5099325;27;46385;-79
2024/03/28 07:17:17;;;;;;;;;0.00;0.00;;;;;;;;5100121;27;45245;-79
2024/03/28 07:19:42;;;;;;;;;0.00;0.00;;;;;;;;5080085;28;45277;-79
2024/03/28 07:22:10;;;;;;;;;0.00;0.00;;;;;;;;5076721;28;45480;-79
2024/03/28 07:24:35;;;;;;;;;0.00;0.00;;;;;;;;5077220;28;47134;-79
2024/03/28 07:27:01;;;;;;;;;0.33;0.33;;;;;;;;5078342;27;45369;-80
2024/03/28 07:29:27;;;;;;;;;1.00;0.00;;;;;;;;5079514;28;45366;-78
2024/03/28 07:31:52;;;;;;;;;0.00;0.00;;;;;;;;5079898;27;45353;-80
2024/03/28 07:34:17;;;;;;;;;0.00;0.00;;;;;;;;5079962;28;46621;-78
2024/03/28 07:36:43;;;;;;;;;0.33;0.00;;;;;;;;5079851;27;45346;-79
2024/03/28 07:39:08;;;;;;;;;0.00;0.00;;;;;;;;5080647;28;45331;-80
2024/03/28 07:41:36;;;;;;;;;0.00;0.00;;;;;;;;5080541;27;45294;-79
2024/03/28 07:44:01;;;;;;;;;3.00;1.00;;;;;;;;5079962;28;45404;-80
2024/03/28 07:46:26;;;;;;;;;0.00;0.00;;;;;;;;5079812;27;45208;-79
2024/03/28 07:48:51;;;;;;;;;1.00;0.00;;;;;;;;5078558;28;45663;-78
2024/03/28 07:51:17;;;;;;;;;2.00;0.00;;;;;;;;5095357;27;46371;-80
2024/03/28 07:53:42;;;;;;;;;1.00;0.00;;;;;;;;5074591;28;47295;-79
2024/03/28 07:56:07;;;;;;;;;1.00;1.00;;;;;;;;5081432;27;45375;-79
2024/03/28 07:58:33;;;;;;;;;0.00;0.00;;;;;;;;5096984;27;45366;-79
2024/03/28 08:01:07;;;;;;;;;0.00;0.00;;;;;;;;5091155;27;45499;-79
2024/03/28 08:03:34;;;;;;;;;0.00;0.00;;;;;;;;5075591;28;47442;-78
2024/03/28 08:05:59;;;;;;;;;1.33;0.00;;;;;;;;5081332;27;45440;-78
2024/03/28 08:08:24;;;;;;;;;0.00;0.00;;;;;;;;5082256;28;45496;-77
2024/03/28 08:10:50;;;;;;;;;0.00;0.00;;;;;;;;5085761;28;45436;-78
2024/03/28 08:13:15;;;;;;;;;1.00;0.67;;;;;;;;5084940;28;45324;-78
2024/03/28 08:15:40;;;;;;;;;0.00;0.00;;;;;;;;5084432;28;45436;-78
2024/03/28 08:18:06;;;;;;;;;0.00;0.00;;;;;;;;5084263;28;45287;-79
2024/03/28 08:20:32;;;;;;;;;0.00;0.00;;;;;;;;5082727;28;45974;-78
2024/03/28 08:22:57;;;;;;;;;0.00;0.00;;;;;;;;5080836;28;47114;-78
2024/03/28 08:25:22;;;;;;;;;0.00;0.00;;;;;;;;5085913;28;45227;-78
2024/03/28 08:27:48;;;;;;;;;0.00;0.00;;;;;;;;5080943;28;45386;-78
2024/03/28 08:30:15;;;;;;;;;0.00;0.00;;;;;;;;5078550;28;45459;-79
2024/03/28 08:32:40;;;;;;;;;0.00;0.00;;;;;;;;5085041;28;45633;-79
2024/03/28 08:35:05;;;;;;;;;0.00;0.00;;;;;;;;5083627;28;45293;-79
2024/03/28 08:37:30;;;;;;;;;1.00;1.00;;;;;;;;5084256;28;45240;-78
2024/03/28 08:39:55;;;;;;;;;0.00;0.00;;;;;;;;5083370;28;46149;-78
2024/03/28 08:42:21;;;;;;;;;0.00;0.00;;;;;;;;5083816;28;45275;-78
2024/03/28 08:44:46;;;;;;;;;0.00;0.00;;;;;;;;5084395;28;45205;-78
2024/03/28 08:47:12;;;;;;;;;0.00;0.00;;;;;;;;5085614;28;45342;-79
2024/03/28 08:49:38;;;;;;;;;0.00;0.00;;;;;;;;5081886;28;46222;-79
2024/03/28 08:52:04;;;;;;;;;0.00;0.00;;;;;;;;5061975;28;47138;-79
2024/03/28 08:54:29;;;;;;;;;1.00;0.00;;;;;;;;5065276;28;45266;-77
2024/03/28 08:56:54;;;;;;;;;0.00;0.00;;;;;;;;5072586;27;45434;-78
2024/03/28 08:59:20;;;;;;;;;0.00;0.00;;;;;;;;5105487;27;45521;-79
2024/03/28 09:01:45;;;;;;;;;0.00;0.00;;;;;;;;5105882;27;45894;-79
2024/03/28 09:04:14;;;;;;;;;0.00;0.00;;;;;;;;5107032;27;45298;-78
2024/03/28 09:06:39;;;;;;;;;0.33;0.00;;;;;;;;5076404;28;45393;-79
2024/03/28 09:09:05;;;;;;;;;1.00;0.00;;;;;;;;5085590;28;45330;-80
2024/03/28 09:11:30;;;;;;;;;0.00;0.00;;;;;;;;5083181;28;47196;-81
2024/03/28 09:13:55;;;;;;;;;0.00;0.00;;;;;;;;5085024;28;45268;-80
2024/03/28 09:16:21;;;;;;;;;0.00;0.00;;;;;;;;5084728;28;45178;-81
2024/03/28 09:18:48;;;;;;;;;0.00;0.00;;;;;;;;5082329;28;47390;-79
2024/03/28 09:21:13;;;;;;;;;0.00;0.00;;;;;;;;5084278;28;45370;-79
2024/03/28 09:23:38;;;;;;;;;0.00;0.00;;;;;;;;5083834;28;45284;-79
2024/03/28 09:26:04;;;;;;;;;1.00;0.00;;;;;;;;5084092;28;45481;-80
2024/03/28 09:28:31;;;;;;;;;0.00;0.00;;;;;;;;5083792;28;45328;-79
2024/03/28 09:30:56;;;;;;;;;0.00;0.00;;;;;;;;5084574;28;45406;-82
2024/03/28 09:33:21;;;;;;;;;0.00;0.00;;;;;;;;5082891;28;46167;-79
2024/03/28 09:35:46;;;;;;;;;0.00;0.00;;;;;;;;5083651;28;45331;-79
2024/03/28 09:38:12;;;;;;;;;0.00;0.00;;;;;;;;5084108;28;45289;-80
2024/03/28 09:40:41;;;;;;;;;0.00;0.00;;;;;;;;5077689;28;47320;-80
2024/03/28 09:43:07;;;;;;;;;0.00;0.00;;;;;;;;5062652;28;45290;-79
2024/03/28 09:45:32;;;;;;;;;0.00;0.00;;;;;;;;5065543;28;45288;-79
2024/03/28 09:47:57;;;;;;;;;0.00;0.00;;;;;;;;5061862;28;47285;-79
2024/03/28 09:50:23;;;;;;;;;0.00;0.00;;;;;;;;5064149;28;45183;-79
2024/03/28 09:52:49;;;;;;;;;0.00;0.00;;;;;;;;5064768;28;45514;-81
2024/03/28 09:55:15;;;;;;;;;0.00;0.00;;;;;;;;5083908;28;45307;-77
2024/03/28 09:57:41;;;;;;;;;0.00;0.00;;;;;;;;5096099;27;45498;-79
2024/03/28 10:00:07;;;;;;;;;1.00;0.00;;;;;;;;5100511;27;45308;-81
2024/03/28 10:02:41;;;;;;;;;0.00;0.00;;;;;;;;5073694;28;45278;-82
2024/03/28 10:05:07;;;;;;;;;0.00;0.00;;;;;;;;5075922;28;45337;-79
2024/03/28 10:07:32;;;;;;;;;0.00;0.00;;;;;;;;5073434;28;45657;-83
2024/03/28 10:09:59;;;;;;;;;0.00;0.00;;;;;;;;5067538;28;46386;-83
2024/03/28 10:12:24;;;;;;;;;0.00;0.00;;;;;;;;5067981;28;45311;-83
2024/03/28 10:14:53;;;;;;;;;0.00;0.00;;;;;;;;5079986;28;45457;-81
2024/03/28 10:17:18;;;;;;;;;1.00;0.00;;;;;;;;5082808;28;45483;-80
2024/03/28 10:19:43;;;;;;;;;0.00;0.00;;;;;;;;5060869;28;48094;-82
2024/03/28 10:22:12;;;;;;;;;1.00;1.00;;;;;;;;5063388;28;45330;-80
2024/03/28 10:24:38;;;;;;;;;0.00;0.00;;;;;;;;5079126;28;45361;-84
2024/03/28 10:27:16;;;;;;;;;0.00;0.00;;;;;;;;5082325;28;45489;-82
2024/03/28 10:29:54;;;;;;;;;0.00;0.00;;;;;;;;5081185;28;45336;-80
2024/03/28 10:32:19;;;;;;;;;0.00;0.00;;;;;;;;5070808;28;45473;-82
2024/03/28 10:34:47;;;;;;;;;1.00;1.00;;;;;;;;5073077;28;45402;-80
2024/03/28 10:37:16;;;;;;;;;1.00;1.00;;;;;;;;5076534;28;45325;-77
2024/03/28 10:39:42;;;;;;;;;0.00;0.00;;;;;;;;5083519;28;45336;-79
2024/03/28 10:42:08;;;;;;;;;7.67;7.00;;;;;;;;5082219;28;45268;-81
2024/03/28 10:44:34;;;;;;;;;0.33;0.33;;;;;;;;5083127;28;45498;-81
2024/03/28 10:47:00;;;;;;;;;2.00;2.00;;;;;;;;5081400;28;47402;-81
2024/03/28 10:49:31;;;;;;;;;1.67;1.00;;;;;;;;5081420;28;46413;-82
2024/03/28 10:52:01;;;;;;;;;3.00;3.00;;;;;;;;5082124;28;46146;-82
2024/03/28 10:54:30;;;;;;;;;0.33;0.33;;;;;;;;5082093;28;45423;-79
2024/03/28 10:56:56;;;;;;;;;0.00;0.00;;;;;;;;5084485;27;46270;-83
2024/03/28 10:59:23;;;;;;;;;1.33;0.00;;;;;;;;5102135;27;45474;-83
2024/03/28 11:01:49;;;;;;;;;1.33;0.00;;;;;;;;5100059;27;46071;-82
2024/03/28 11:04:18;;;;;;;;;0.33;0.33;;;;;;;;5101987;27;45153;-83
2024/03/28 11:06:43;;;;;;;;;1.33;1.33;;;;;;;;5100111;27;46982;-82
2024/03/28 11:09:10;;;;;;;;;2.33;2.33;;;;;;;;5101603;27;45653;-82
2024/03/28 11:11:35;;;;;;;;;1.67;1.00;;;;;;;;5101723;27;45295;-80
2024/03/28 11:14:03;;;;;;;;;0.00;0.00;;;;;;;;5103063;27;45497;-81
2024/03/28 11:16:28;;;;;;;;;0.00;0.00;;;;;;;;5105555;27;45338;-82
2024/03/28 11:18:58;;;;;;;;;1.67;1.67;;;;;;;;5102805;27;45417;-79
2024/03/28 11:21:32;;;;;;;;;0.33;0.33;;;;;;;;5102916;27;45358;-79
2024/03/28 11:23:57;;;;;;;;;1.00;0.00;;;;;;;;5104216;27;45260;-82
2024/03/28 11:26:24;;;;;;;;;0.67;0.67;;;;;;;;5100734;27;46183;-81
2024/03/28 11:29:02;;;;;;;;;1.67;0.33;;;;;;;;5101749;27;45268;-82
2024/03/28 11:31:27;;;;;;;;;0.33;0.33;;;;;;;;5085303;27;45736;-84
2024/03/28 11:33:59;;;;;;;;;0.00;0.00;;;;;;;;5072415;28;45288;-80
2024/03/28 11:36:28;;;;;;;;;0.00;0.00;;;;;;;;5075422;28;46176;-83
2024/03/28 11:38:53;;;;;;;;;0.00;0.00;;;;;;;;5081608;28;45456;-79
2024/03/28 11:41:20;;;;;;;;;0.00;0.00;;;;;;;;5098223;27;45309;-84
2024/03/28 11:43:45;;;;;;;;;0.00;0.00;;;;;;;;5102266;27;45901;-79
2024/03/28 11:46:10;;;;;;;;;0.33;0.33;;;;;;;;5100071;27;45503;-85
2024/03/28 11:48:36;;;;;;;;;0.00;0.00;;;;;;;;5100042;27;47251;-83
2024/03/28 11:51:04;;;;;;;;;0.00;0.00;;;;;;;;5102577;27;45273;-85
2024/03/28 11:53:30;;;;;;;;;0.33;0.33;;;;;;;;5105650;27;45470;-79
2024/03/28 11:55:55;;;;;;;;;0.00;0.00;;;;;;;;5106485;27;45179;-80
2024/03/28 11:58:23;;;;;;;;;0.00;0.00;;;;;;;;5103968;27;46389;-83
2024/03/28 12:00:49;;;;;;;;;0.00;0.00;;;;;;;;5099812;27;46275;-79
2024/03/28 12:03:14;;;;;;;;;0.33;0.00;;;;;;;;5103966;27;45314;-80
2024/03/28 12:05:39;;;;;;;;;0.00;0.00;;;;;;;;5105892;27;45231;-79
2024/03/28 12:08:05;;;;;;;;;0.00;0.00;;;;;;;;5105180;27;45169;-82
2024/03/28 12:10:32;;;;;;;;;0.00;0.00;;;;;;;;5106967;27;45416;-80
2024/03/28 12:12:59;;;;;;;;;0.00;0.00;;;;;;;;5107963;27;45303;-78
2024/03/28 12:15:24;;;;;;;;;0.00;0.00;;;;;;;;5103672;27;45748;-78
2024/03/28 12:17:50;;;;;;;;;0.00;0.00;;;;;;;;5105539;27;45402;-80
2024/03/28 12:20:20;;;;;;;;;0.00;0.00;;;;;;;;5101374;27;45489;-81
2024/03/28 12:22:47;;;;;;;;;1.00;0.00;;;;;;;;5100292;27;45377;-83
2024/03/28 12:25:12;;;;;;;;;0.00;0.00;;;;;;;;5101770;27;45859;-80
2024/03/28 12:27:38;;;;;;;;;0.00;0.00;;;;;;;;5100508;27;46223;-82
2024/03/28 12:30:10;;;;;;;;;2.00;0.00;;;;;;;;5098746;27;45474;-81
2024/03/28 12:32:36;;;;;;;;;0.00;0.00;;;;;;;;5099926;27;45457;-81
2024/03/28 12:35:02;;;;;;;;;0.00;0.00;;;;;;;;5101069;27;45411;-80
2024/03/28 12:37:27;;;;;;;;;0.00;0.00;;;;;;;;5098811;27;46997;-83
2024/03/28 12:39:52;;;;;;;;;0.00;0.00;;;;;;;;5101149;27;45353;-81
2024/03/28 12:42:21;;;;;;;;;0.00;0.00;;;;;;;;5101034;27;45711;-81
2024/03/28 12:44:46;;;;;;;;;0.00;0.00;;;;;;;;5099481;27;46331;-81
2024/03/28 12:47:12;;;;;;;;;0.00;0.00;;;;;;;;5083685;27;45440;-82
2024/03/28 12:49:37;;;;;;;;;0.00;0.00;;;;;;;;5066679;28;45944;-82
2024/03/28 12:52:02;;;;;;;;;0.00;0.00;;;;;;;;5069576;28;45359;-80
2024/03/28 12:54:27;;;;;;;;;0.67;0.67;;;;;;;;5069014;28;47349;-84
2024/03/28 12:56:54;;;;;;;;;0.00;0.00;;;;;;;;5071386;27;46363;-79
2024/03/28 12:59:19;;;;;;;;;1.00;0.00;;;;;;;;5079158;28;45471;-79
2024/03/28 13:01:44;;;;;;;;;0.00;0.00;;;;;;;;5079786;27;45335;-77
2024/03/28 13:04:09;;;;;;;;;0.00;0.00;;;;;;;;5079833;27;45298;-80
2024/03/28 13:06:34;;;;;;;;;0.00;0.00;;;;;;;;5080634;27;46262;-80
2024/03/28 13:09:39;;;;;;;;;0.00;0.00;;;;;;;;5080608;28;45267;-81
2024/03/28 13:12:04;;;;;;;;;0.00;0.00;;;;;;;;5075687;28;45411;-82
2024/03/28 13:14:31;;;;;;;;;0.00;0.00;;;;;;;;5082418;27;45207;-78
2024/03/28 13:16:57;;;;;;;;;0.00;0.00;;;;;;;;5082667;27;46178;-80
2024/03/28 13:19:23;;;;;;;;;1.00;0.00;;;;;;;;5081188;28;45422;-78
2024/03/28 13:21:48;;;;;;;;;0.00;0.00;;;;;;;;5082443;28;45382;-82
2024/03/28 13:24:13;;;;;;;;;1.00;0.00;;;;;;;;5081122;28;47346;-80
2024/03/28 13:26:39;;;;;;;;;0.00;0.00;;;;;;;;5083562;28;45306;-79
2024/03/28 13:29:04;;;;;;;;;0.00;0.00;;;;;;;;5082441;28;45346;-80
2024/03/28 13:31:29;;;;;;;;;0.00;0.00;;;;;;;;5082054;28;45970;-82
2024/03/28 13:33:55;;;;;;;;;0.00;0.00;;;;;;;;5082495;28;45272;-78
2024/03/28 13:36:20;;;;;;;;;0.00;0.00;;;;;;;;5081923;28;47242;-79
2024/03/28 13:38:45;;;;;;;;;0.00;0.00;;;;;;;;5083252;28;45280;-82
2024/03/28 13:41:10;;;;;;;;;0.00;0.00;;;;;;;;5083361;28;45211;-80
2024/03/28 13:43:36;;;;;;;;;0.00;0.00;;;;;;;;5082550;28;45337;-81
2024/03/28 13:46:01;;;;;;;;;0.00;0.00;;;;;;;;5082979;28;45279;-82
2024/03/28 13:48:28;;;;;;;;;0.00;0.00;;;;;;;;5083125;28;45486;-81
2024/03/28 13:50:53;;;;;;;;;0.00;0.00;;;;;;;;5083754;28;45336;-82
2024/03/28 13:53:19;;;;;;;;;0.00;0.00;;;;;;;;5081847;28;45462;-83
2024/03/28 13:55:46;;;;;;;;;0.00;0.00;;;;;;;;5080693;28;47124;-83
2024/03/28 13:58:11;;;;;;;;;0.00;0.00;;;;;;;;5096231;27;45333;-79
2024/03/28 14:00:36;;;;;;;;;0.00;0.00;;;;;;;;5102448;27;45509;-81
2024/03/28 14:03:02;;;;;;;;;0.00;0.00;;;;;;;;5101704;27;45591;-81
2024/03/28 14:05:27;;;;;;;;;0.00;0.00;;;;;;;;5101872;27;45916;-81
2024/03/28 14:07:52;;;;;;;;;0.00;0.00;;;;;;;;5100632;27;45269;-81
2024/03/28 14:10:17;;;;;;;;;0.00;0.00;;;;;;;;5084201;27;45346;-78
2024/03/28 14:12:43;;;;;;;;;0.00;0.00;;;;;;;;5071309;28;45462;-85
2024/03/28 14:15:09;;;;;;;;;0.00;0.00;;;;;;;;5080469;28;47267;-83
2024/03/28 14:17:34;;;;;;;;;0.00;0.00;;;;;;;;5082582;28;45337;-81
2024/03/28 14:19:59;;;;;;;;;1.33;0.00;;;;;;;;5082075;28;45796;-82
2024/03/28 14:22:25;;;;;;;;;0.00;0.00;;;;;;;;5081615;28;45539;-79
2024/03/28 14:24:53;;;;;;;;;0.00;0.00;;;;;;;;5081283;28;46172;-79
2024/03/28 14:27:19;;;;;;;;;0.00;0.00;;;;;;;;5079957;28;45777;-79
2024/03/28 14:29:44;;;;;;;;;0.00;0.00;;;;;;;;5081623;28;45307;-81
2024/03/28 14:32:09;;;;;;;;;0.00;0.00;;;;;;;;5081368;28;45243;-79
2024/03/28 14:34:34;;;;;;;;;0.00;0.00;;;;;;;;5079639;28;47092;-84
2024/03/28 14:36:59;;;;;;;;;0.00;0.00;;;;;;;;5081671;28;45304;-82
2024/03/28 14:39:24;;;;;;;;;0.00;0.00;;;;;;;;5081008;28;45696;-80
2024/03/28 14:41:49;;;;;;;;;0.00;0.00;;;;;;;;5081361;28;45238;-81
2024/03/28 14:44:15;;;;;;;;;0.00;0.00;;;;;;;;5080073;28;47069;-81